Kapaa, HI

8:04 AM HST on September 20, 2014 (GMT -1000)
WAILUA HOMESTEADS | Change Station
CLOSE
Current Station
Personal Weather Station
Location: Kapaa, HI
Elevation: 361 ft
Nearby Weather Stations

Elev 361 ft 22.07 °N, 159.36 °W | Updated 53 seconds ago

Clear
Clear
74.6 °F
Feels Like 76 °F
N
1.0
Wind Variable Wind from SSE
Gusts 4.0 mph

Today
High -- | Low -- °F
--% Chance of Precip.
Yesterday
High -- | Low -- °F
Precip. -- in
6:25 AM 6:35 PM
Waning Crescent, 11% visible
Pressure 29.94 in
Visibility 10.0 miles
Clouds Clear
Heat Index 76 °F
Dew Point 66 °F
Humidity 76%
Rainfall 0.00 in
Snow Depth Not available.
UV 1.1 out of 12
Pollen Not available.
Air Quality Not available.
Flu Activity Not available.
METAR PHLI 201753Z 30003KT 10SM CLR 26/22 A2995 RMK AO2 SLP137 T02610217 10261 20228 53015

More Conditions Fewer Conditions

Pressure 29.94 in
Visibility 10.0 miles
Clouds Clear
Heat Index 76 °F
Dew Point 66 °F
Humidity 76%
Rainfall 0.00 in
Snow Depth Not available.
UV 1.1 out of 12
Pollen Not available.
Air Quality Not available.
Flu Activity Not available.
METAR PHLI 201753Z 30003KT 10SM CLR 26/22 A2995 RMK AO2 SLP137 T02610217 10261 20228 53015

More Conditions Fewer Conditions

10-Day Weather Forecast

Almanac

Astronomy

Sep. 20, 2014 Rise Set
Actual Time 6:25 AM HST 6:35 PM HST
Civil Twilight 6:03 AM HST 6:57 PM HST
Nautical Twilight 5:37 AM HST 7:23 PM HST
Astronomical Twilight 5:11 AM HST 7:49 PM HST
Moon 3:33 AM HST 4:30 PM HST
Length of Visible Light 12h 54m
Length of Day
12h 09m
Tomorrow will be 1m 15s shorter.
Waning Crescent, 11% of the Moon is Illuminated
Today
Waning Crescent
Sep 24
New
Oct 1
First Quarter
Oct 8
Full
Oct 15
Last Quarter

Today's Extremes

State Highs State Lows

Community

WunderPhotos

Upload Photos

1,754,921 photos uploaded!

WunderBlogs® & News

Nearby

Snow Depth

Station Depth Elevation
No new snow has been reported.

Earthquake Activity

City Distance Mag. Time & Date
No recent earthquake activity has been reported nearby.
Minimum magnitude displayed is 2.5.

Coastal Water Temperatures

Place Temperature
No Stations Reporting

Nearby Weather Stations